KFOT

Rohnerville Airport

Fortuna, California, USA
METAR KFOT 181555Z AUTO 10007KT 1 1/2SM OVC003 M17/M33 A3022 RMK AO1
Observed Flight Rules
Dec-18 @ 15:55 UTC (31 minutes ago) Instrument Flight Rules
Wind Visibility Clouds
100° at 7 knots 1 1/2 miles
  • Overcast at 300' AGL
Temperatures Readings
Current -17°C / 1°F
Dewpoint -33°C / -27°F
Humidity 24%
Altimeter 30.22" Hg
Pressure 1023 hPa
Elevation 120
METAR KFOT 181555Z AUTO 10007KT 1 1/2SM OVC003 M17/M33 A3022 RMK AO1
Observed Flight Rules
Dec-18 @ 15:55 UTC
(31 minutes ago)
LIFR
Wind Visibility
100° at 7 knots 1 1/2 miles
Clouds
  • Overcast at 300' AGL
Temperature Dewpoint
-17°C / 1°F -33°C / -27°F
Humidity Altimeter Pressure
24% 30.22" Hg 1023 hPa